Time;durP1;ratioP1;P1;durP2;ratioP2;P2;SDS_P1;SDS_P2;PMS_P1;PMS_P2;Temp;Humidity;BMP_temperature;BMP_pressure;BME280_temperature;BME280_humidity;BME280_pressure;Samples;Min_cycle;Max_cycle;Signal;HPM_P1;HPM_P2
2022/10/21 00:02:14;;;;;;;16.90;8.50;;;;;;;6.80;67.66;100640.06;4470610;32;33118;-74
2022/10/21 00:04:42;;;;;;;13.40;8.10;;;;;;;7.31;66.07;100634.19;4470255;32;33232;-74
2022/10/21 00:07:09;;;;;;;12.48;8.60;;;;;;;6.61;67.90;100631.72;4465436;32;33619;-73
2022/10/21 00:09:37;;;;;;;13.13;8.77;;;;;;;6.66;67.58;100631.94;4454666;32;35109;-78
2022/10/21 00:12:05;;;;;;;12.82;8.20;;;;;;;6.61;68.06;100633.56;4440983;32;33945;-72
2022/10/21 00:14:32;;;;;;;11.77;7.75;;;;;;;6.76;67.56;100629.72;4454532;32;33383;-74
2022/10/21 00:16:59;;;;;;;12.40;7.30;;;;;;;7.10;66.25;100636.00;4457469;32;34754;-78
2022/10/21 00:19:27;;;;;;;13.68;8.18;;;;;;;6.59;68.28;100628.41;4461396;32;34345;-80
2022/10/21 00:21:54;;;;;;;12.15;7.82;;;;;;;6.63;68.26;100628.81;4454553;32;33881;-79
2022/10/21 00:24:22;;;;;;;13.25;7.87;;;;;;;6.52;67.92;100619.44;4454694;32;34081;-74
2022/10/21 00:26:50;;;;;;;13.02;8.80;;;;;;;6.56;68.16;100620.69;4454598;32;33958;-79
2022/10/21 00:29:17;;;;;;;13.75;8.48;;;;;;;6.34;68.37;100618.09;4454667;32;34173;-74
2022/10/21 00:31:44;;;;;;;14.13;8.82;;;;;;;6.68;67.61;100612.88;4454750;32;33600;-73
2022/10/21 00:34:12;;;;;;;14.85;8.57;;;;;;;5.82;70.61;100616.72;4454378;32;34377;-78
2022/10/21 00:36:39;;;;;;;16.52;10.02;;;;;;;5.99;69.52;100621.84;4457458;32;34788;-79
2022/10/21 00:39:06;;;;;;;13.40;9.57;;;;;;;6.57;67.91;100611.59;4470253;32;34320;-78
2022/10/21 00:41:34;;;;;;;14.00;9.68;;;;;;;6.44;67.88;100609.66;4470050;32;33970;-74
2022/10/21 00:44:04;;;;;;;15.35;9.43;;;;;;;6.29;68.70;100604.41;4469900;32;33475;-73
2022/10/21 00:46:51;;;;;;;15.65;9.95;;;;;;;6.11;69.37;100601.38;4468806;32;33939;-73
2022/10/21 00:49:37;;;;;;;12.45;8.15;;;;;;;6.16;69.24;100599.78;4454193;32;34146;-74
2022/10/21 00:52:08;;;;;;;10.90;7.20;;;;;;;6.18;70.02;100598.72;4454792;32;33702;-74
2022/10/21 00:54:36;;;;;;;11.70;7.95;;;;;;;6.37;69.25;100595.31;4454289;32;33831;-79
2022/10/21 00:57:04;;;;;;;12.40;7.78;;;;;;;6.13;70.22;100591.25;4454430;32;34135;-74
2022/10/21 00:59:39;;;;;;;9.98;6.72;;;;;;;6.02;70.55;100592.63;4450564;32;33672;-75
2022/10/21 01:02:07;;;;;;;10.65;7.05;;;;;;;6.23;69.89;100599.81;4469743;32;34000;-74
2022/10/21 01:04:34;;;;;;;10.75;6.45;;;;;;;6.30;69.55;100597.16;4464942;32;33315;-74
2022/10/21 01:07:02;;;;;;;9.80;6.55;;;;;;;6.34;69.14;100585.75;4453563;32;33828;-74
2022/10/21 01:09:29;;;;;;;10.77;6.82;;;;;;;6.48;68.48;100592.06;4454077;32;34033;-74
2022/10/21 01:11:57;;;;;;;10.90;7.15;;;;;;;6.02;69.85;100579.16;4455093;32;34478;-73
2022/10/21 01:14:38;;;;;;;10.13;6.62;;;;;;;5.98;69.71;100575.19;4454312;32;34178;-75
2022/10/21 01:17:22;;;;;;;11.48;7.43;;;;;;;6.60;68.09;100575.28;4440051;32;33445;-74
2022/10/21 01:20:22;;;;;;;9.77;6.22;;;;;;;6.53;68.15;100583.38;4468474;32;35073;-74
2022/10/21 01:23:08;;;;;;;10.60;7.05;;;;;;;6.26;68.70;100571.63;4454991;32;33735;-74
2022/10/21 01:26:13;;;;;;;10.32;6.85;;;;;;;6.79;66.58;100577.22;4469681;32;33457;-78
2022/10/21 01:29:34;;;;;;;11.00;6.95;;;;;;;6.94;66.05;100579.75;4469130;32;34810;-73
2022/10/21 01:32:05;;;;;;;9.68;6.70;;;;;;;6.45;67.22;100575.44;4390908;32;34751;-74
2022/10/21 01:34:42;;;;;;;10.18;6.45;;;;;;;6.17;67.53;100576.34;4390741;32;33656;-73
2022/10/21 01:37:19;;;;;;;12.35;7.37;;;;;;;6.13;67.40;100558.91;4435482;32;33503;-74
2022/10/21 01:39:51;;;;;;;9.82;6.78;;;;;;;6.30;66.56;100564.81;4442363;32;34638;-79
2022/10/21 01:42:41;;;;;;;9.77;7.10;;;;;;;6.19;66.71;100552.72;4469825;32;34038;-74
2022/10/21 01:45:19;;;;;;;11.52;6.93;;;;;;;6.09;67.20;100555.81;4445111;32;34462;-73
2022/10/21 01:47:50;;;;;;;10.00;6.53;;;;;;;6.26;66.03;100541.97;4440201;32;33164;-73
2022/10/21 01:50:29;;;;;;;13.40;7.57;;;;;;;6.10;66.92;100543.16;4439750;32;34788;-74
2022/10/21 01:53:00;;;;;;;10.02;6.90;;;;;;;5.47;68.58;100544.00;4440098;32;34015;-74
2022/10/21 01:55:30;;;;;;;9.88;6.47;;;;;;;5.50;68.62;100546.28;4440535;32;33887;-73
2022/10/21 01:58:05;;;;;;;12.43;7.55;;;;;;;5.71;67.94;100556.16;4440052;32;33281;-73
2022/10/21 02:00:34;;;;;;;10.95;6.57;;;;;;;5.91;67.52;100560.84;4424620;32;33925;-73
2022/10/21 02:03:06;;;;;;;10.32;6.50;;;;;;;5.80;68.04;100556.03;4424486;32;35385;-74
2022/10/21 02:05:34;;;;;;;11.50;7.50;;;;;;;5.60;68.48;100559.41;4451249;32;33891;-73
2022/10/21 02:08:02;;;;;;;10.63;7.05;;;;;;;5.43;69.32;100550.78;4469311;32;34231;-74
2022/10/21 02:10:34;;;;;;;10.40;6.93;;;;;;;6.27;66.94;100549.06;4455578;32;33919;-73
2022/10/21 02:13:04;;;;;;;11.30;6.95;;;;;;;5.91;67.91;100555.47;4453517;32;34334;-73
2022/10/21 02:15:32;;;;;;;9.95;7.00;;;;;;;5.97;68.09;100553.88;4439738;32;33935;-79
2022/10/21 02:18:23;;;;;;;9.43;6.80;;;;;;;5.97;67.58;100554.69;4445873;32;33463;-80
2022/10/21 02:20:56;;;;;;;10.95;6.43;;;;;;;5.94;67.91;100572.09;4454864;32;34853;-80
2022/10/21 02:23:58;;;;;;;14.20;7.10;;;;;;;5.45;69.24;100564.88;4455135;32;34233;-78
2022/10/21 02:26:26;;;;;;;10.45;6.07;;;;;;;5.61;69.19;100557.53;4434144;32;33745;-74
2022/10/21 02:28:55;;;;;;;9.45;6.62;;;;;;;5.77;68.70;100559.94;4446329;32;33217;-74
2022/10/21 02:31:53;;;;;;;9.68;6.55;;;;;;;5.62;69.01;100559.22;4451358;32;34158;-75
2022/10/21 02:34:36;;;;;;;9.05;6.60;;;;;;;5.53;69.58;100559.37;4468897;32;34198;-73
2022/10/21 02:37:12;;;;;;;9.45;6.45;;;;;;;5.55;69.01;100564.56;4468986;32;33778;-74
2022/10/21 02:39:46;;;;;;;11.45;6.28;;;;;;;5.57;69.15;100570.56;4468837;32;33531;-74
2022/10/21 02:42:18;;;;;;;10.37;6.50;;;;;;;5.48;69.34;100558.28;4455017;32;33999;-73
2022/10/21 02:44:46;;;;;;;10.00;6.18;;;;;;;5.48;69.16;100547.50;4454408;32;34283;-77
2022/10/21 02:47:15;;;;;;;8.68;5.70;;;;;;;5.47;68.89;100549.37;4458288;32;33660;-73
2022/10/21 02:49:43;;;;;;;8.88;5.55;;;;;;;5.78;67.69;100553.50;4453368;32;33577;-73
2022/10/21 02:52:11;;;;;;;9.15;6.60;;;;;;;5.38;68.73;100558.63;4453219;32;33988;-72
2022/10/21 02:54:38;;;;;;;10.07;6.37;;;;;;;5.69;68.43;100552.00;4458221;32;33952;-73
2022/10/21 02:57:05;;;;;;;10.25;6.28;;;;;;;5.34;68.83;100546.59;4468678;32;33622;-75
2022/10/21 02:59:33;;;;;;;12.02;7.30;;;;;;;5.45;68.72;100545.22;4468718;32;33331;-77
2022/10/21 03:02:00;;;;;;;10.93;6.57;;;;;;;5.27;68.78;100557.31;4454869;32;33491;-73
2022/10/21 03:04:27;;;;;;;10.23;6.30;;;;;;;5.03;70.18;100555.84;4467488;32;34243;-72
2022/10/21 03:06:55;;;;;;;10.02;6.72;;;;;;;5.38;69.02;100550.56;4468442;32;34698;-73
2022/10/21 03:09:22;;;;;;;10.57;6.55;;;;;;;5.18;69.07;100554.94;4468199;32;33914;-74
2022/10/21 03:11:50;;;;;;;8.05;5.55;;;;;;;5.28;69.29;100560.81;4468499;32;34670;-72
2022/10/21 03:14:17;;;;;;;9.98;6.20;;;;;;;5.16;69.53;100557.81;4468466;32;34235;-73
2022/10/21 03:16:45;;;;;;;10.70;6.65;;;;;;;5.00;70.04;100558.09;4468495;32;33458;-73
2022/10/21 03:19:12;;;;;;;11.00;6.40;;;;;;;5.12;69.32;100552.00;4460555;32;33485;-71
2022/10/21 03:21:40;;;;;;;10.05;6.03;;;;;;;5.26;69.15;100550.25;4456308;32;33916;-71
2022/10/21 03:24:07;;;;;;;10.20;6.20;;;;;;;4.60;71.50;100558.50;4452579;32;34294;-71
2022/10/21 03:26:51;;;;;;;11.40;6.65;;;;;;;4.48;71.73;100550.09;4452735;32;34004;-73
2022/10/21 03:29:18;;;;;;;8.85;5.55;;;;;;;4.39;72.47;100545.84;4453741;32;33127;-72
2022/10/21 03:31:46;;;;;;;10.50;6.50;;;;;;;4.86;70.87;100533.75;4467437;32;33671;-73
2022/10/21 03:34:13;;;;;;;9.20;6.45;;;;;;;5.20;69.92;100523.28;4456547;32;34828;-71
2022/10/21 03:36:41;;;;;;;13.35;6.60;;;;;;;4.62;73.25;100526.03;4470154;32;33702;-72
2022/10/21 03:39:10;;;;;;;11.18;7.03;;;;;;;5.08;72.60;100529.19;4470589;32;32655;-72
2022/10/21 03:41:38;;;;;;;10.50;6.55;;;;;;;4.99;73.37;100537.56;4456621;32;34666;-72
2022/10/21 03:44:05;;;;;;;8.32;5.60;;;;;;;5.24;72.58;100528.06;4467567;32;33964;-72
2022/10/21 03:46:32;;;;;;;10.10;5.85;;;;;;;5.26;73.07;100528.72;4455441;32;33754;-72
2022/10/21 03:49:00;;;;;;;10.73;6.95;;;;;;;5.50;71.45;100527.44;4455251;32;34297;-72
2022/10/21 03:51:32;;;;;;;9.77;6.72;;;;;;;5.19;73.18;100525.16;4465197;32;33959;-78
2022/10/21 03:54:00;;;;;;;12.18;6.47;;;;;;;5.49;72.51;100516.88;4470509;32;34265;-72
2022/10/21 03:56:27;;;;;;;9.35;5.78;;;;;;;5.75;71.48;100516.22;4470416;32;33818;-72
2022/10/21 03:58:55;;;;;;;10.90;6.30;;;;;;;5.92;70.89;100512.19;4470469;32;34266;-80
2022/10/21 04:01:26;;;;;;;10.93;6.50;;;;;;;6.07;70.48;100506.69;4470011;32;34740;-72
2022/10/21 04:03:53;;;;;;;10.15;5.90;;;;;;;6.02;70.00;100514.50;4470277;32;34639;-72
2022/10/21 04:06:20;;;;;;;8.55;5.30;;;;;;;5.79;69.72;100501.34;4445530;32;34535;-76
2022/10/21 04:08:48;;;;;;;9.88;6.07;;;;;;;5.48;71.52;100504.44;4454921;32;33289;-73
2022/10/21 04:11:16;;;;;;;10.95;6.40;;;;;;;5.82;70.03;100505.50;4454571;32;34623;-79
2022/10/21 04:13:43;;;;;;;9.13;6.12;;;;;;;5.75;70.57;100489.31;4455032;32;35025;-75
2022/10/21 04:16:14;;;;;;;9.90;6.45;;;;;;;6.44;67.83;100503.72;4454760;32;33667;-75
2022/10/21 04:18:42;;;;;;;9.65;6.20;;;;;;;6.07;68.58;100501.28;4440593;32;33449;-75
2022/10/21 04:21:09;;;;;;;8.63;6.10;;;;;;;6.01;69.29;100499.41;4454688;32;33197;-74
2022/10/21 04:23:37;;;;;;;10.18;6.37;;;;;;;6.51;67.26;100497.28;4454562;32;34264;-75
2022/10/21 04:26:05;;;;;;;12.35;6.30;;;;;;;5.86;69.96;100499.50;4454498;32;34636;-74
2022/10/21 04:28:33;;;;;;;9.70;6.53;;;;;;;6.26;67.91;100501.56;4454663;32;33259;-75
2022/10/21 04:31:01;;;;;;;9.60;6.05;;;;;;;5.90;69.20;100505.34;4456064;32;33914;-75
2022/10/21 04:33:29;;;;;;;9.30;6.50;;;;;;;6.07;68.64;100501.28;4470175;32;34228;-75
2022/10/21 04:35:57;;;;;;;14.38;8.32;;;;;;;6.26;67.66;100494.31;4470140;32;33980;-72
2022/10/21 04:38:25;;;;;;;23.62;13.30;;;;;;;6.42;67.24;100479.66;4470119;32;33517;-75
2022/10/21 04:41:01;;;;;;;14.30;8.55;;;;;;;5.81;69.15;100474.19;4469833;32;34025;-72
2022/10/21 04:43:28;;;;;;;12.63;7.62;;;;;;;6.06;68.91;100472.69;4470267;32;34274;-74
2022/10/21 04:45:56;;;;;;;16.83;8.80;;;;;;;6.21;68.19;100472.53;4469392;32;34011;-73
2022/10/21 04:48:23;;;;;;;15.20;9.27;;;;;;;6.32;67.36;100469.25;4470494;32;33633;-73
2022/10/21 04:50:52;;;;;;;13.77;8.10;;;;;;;6.19;67.67;100463.00;4470248;32;33946;-74
2022/10/21 04:53:20;;;;;;;18.70;10.35;;;;;;;6.58;66.78;100463.06;4470032;32;34393;-74
2022/10/21 04:55:51;;;;;;;20.98;9.85;;;;;;;6.01;68.62;100455.47;4463370;32;33388;-74
2022/10/21 04:58:20;;;;;;;19.15;10.32;;;;;;;6.52;67.12;100469.31;4441129;32;33600;-73
2022/10/21 05:00:49;;;;;;;16.62;9.65;;;;;;;6.52;66.93;100463.91;4470151;32;34163;-74
2022/10/21 05:03:17;;;;;;;14.57;8.25;;;;;;;6.64;66.35;100460.63;4456036;32;34756;-80
2022/10/21 05:05:48;;;;;;;12.05;8.48;;;;;;;6.40;67.51;100462.84;4470046;32;33633;-74
2022/10/21 05:08:16;;;;;;;10.55;7.20;;;;;;;6.56;67.09;100473.22;4455918;32;33436;-73
2022/10/21 05:10:44;;;;;;;9.45;6.43;;;;;;;6.44;67.45;100466.81;4450170;32;34686;-75
2022/10/21 05:13:12;;;;;;;12.35;7.78;;;;;;;6.57;66.71;100466.81;4452046;32;35109;-70
2022/10/21 05:15:39;;;;;;;12.60;8.20;;;;;;;6.57;66.84;100468.69;4439593;32;33702;-72
2022/10/21 05:18:06;;;;;;;11.48;7.68;;;;;;;6.58;67.71;100463.06;4440237;32;33330;-75
2022/10/21 05:20:34;;;;;;;13.45;8.10;;;;;;;6.53;67.98;100456.66;4454343;32;34694;-76
2022/10/21 05:23:01;;;;;;;12.52;8.43;;;;;;;6.87;66.54;100460.19;4453556;32;34289;-69
2022/10/21 05:25:29;;;;;;;13.18;8.20;;;;;;;6.40;67.94;100460.16;4452684;32;33231;-75
2022/10/21 05:28:00;;;;;;;17.20;8.73;;;;;;;6.57;67.48;100468.69;4453879;32;34184;-70
2022/10/21 05:30:28;;;;;;;12.98;8.50;;;;;;;6.84;65.96;100474.09;4453963;32;33895;-75
2022/10/21 05:32:55;;;;;;;12.30;7.57;;;;;;;6.47;67.18;100470.94;4453605;32;35067;-71
2022/10/21 05:35:23;;;;;;;14.85;8.18;;;;;;;6.99;66.04;100466.63;4463731;32;34543;-76
2022/10/21 05:37:50;;;;;;;12.10;7.72;;;;;;;7.09;66.03;100474.34;4469615;32;33355;-71
2022/10/21 05:40:17;;;;;;;12.02;7.70;;;;;;;7.17;65.21;100476.78;4468219;32;33722;-72
2022/10/21 05:42:46;;;;;;;10.15;6.78;;;;;;;6.87;65.46;100492.56;4469088;32;34306;-71
2022/10/21 05:45:14;;;;;;;11.63;7.22;;;;;;;7.21;64.38;100472.66;4469077;32;33842;-70
2022/10/21 05:47:41;;;;;;;11.02;7.70;;;;;;;6.90;65.35;100459.78;4468957;32;33556;-74
2022/10/21 05:50:10;;;;;;;11.60;7.70;;;;;;;7.26;64.22;100458.56;4455096;32;33747;-72
2022/10/21 05:52:38;;;;;;;12.00;7.70;;;;;;;7.30;64.04;100438.16;4441362;32;34135;-72
2022/10/21 05:55:07;;;;;;;11.48;7.62;;;;;;;7.12;64.33;100445.03;4453124;32;34810;-76
2022/10/21 05:57:36;;;;;;;10.05;7.32;;;;;;;6.48;67.22;100456.41;4453888;32;33228;-72
2022/10/21 06:00:05;;;;;;;12.37;7.57;;;;;;;6.53;66.94;100468.25;4453878;32;33792;-76
2022/10/21 06:02:32;;;;;;;13.27;7.30;;;;;;;7.08;65.17;100488.84;4453420;32;34147;-77
2022/10/21 06:05:00;;;;;;;38.45;21.02;;;;;;;7.24;64.96;100493.84;4453804;32;33677;-75
2022/10/21 06:07:27;;;;;;;13.82;9.18;;;;;;;6.94;66.19;100498.81;4463841;32;33279;-72
2022/10/21 06:09:54;;;;;;;12.88;8.38;;;;;;;7.67;63.32;100498.75;4467944;32;33922;-73
2022/10/21 06:12:22;;;;;;;14.82;9.52;;;;;;;7.20;65.05;100503.38;4469017;32;34384;-72
2022/10/21 06:14:49;;;;;;;14.48;9.63;;;;;;;7.21;65.09;100510.44;4457584;32;34695;-71
2022/10/21 06:17:17;;;;;;;12.52;8.27;;;;;;;7.41;64.88;100515.84;4452037;32;34305;-73
2022/10/21 06:19:44;;;;;;;17.23;10.68;;;;;;;7.45;65.43;100511.69;4453266;32;34497;-71
2022/10/21 06:22:17;;;;;;;15.52;10.23;;;;;;;7.81;64.32;100494.97;4453263;32;34217;-73
2022/10/21 06:24:45;;;;;;;12.82;8.95;;;;;;;8.43;62.19;100508.06;4452671;32;34988;-70
2022/10/21 06:27:13;;;;;;;12.90;8.32;;;;;;;8.12;62.94;100503.38;4451940;32;33064;-72
2022/10/21 06:29:40;;;;;;;16.40;8.40;;;;;;;8.33;61.72;100510.38;4453670;32;33805;-74
2022/10/21 06:32:08;;;;;;;12.88;8.65;;;;;;;8.23;62.75;100521.66;4453259;32;34220;-73
2022/10/21 06:34:35;;;;;;;12.32;8.70;;;;;;;8.70;60.64;100529.56;4453098;32;34623;-73
2022/10/21 06:37:02;;;;;;;14.40;9.05;;;;;;;8.88;59.92;100542.37;4453419;32;33355;-72
2022/10/21 06:39:30;;;;;;;15.70;10.55;;;;;;;9.02;59.51;100531.22;4439388;32;34050;-73
2022/10/21 06:41:57;;;;;;;19.08;10.40;;;;;;;9.32;58.88;100524.34;4453153;32;35055;-74
2022/10/21 06:44:25;;;;;;;15.15;10.05;;;;;;;9.49;58.42;100511.06;4453519;32;34522;-75
2022/10/21 06:46:53;;;;;;;12.70;8.45;;;;;;;9.41;58.63;100507.56;4453774;32;33545;-72
2022/10/21 06:49:20;;;;;;;14.02;8.70;;;;;;;9.34;58.00;100514.09;4467183;32;34605;-75
2022/10/21 06:51:47;;;;;;;13.35;8.55;;;;;;;9.42;58.59;100503.81;4455049;32;34072;-74
2022/10/21 06:54:15;;;;;;;12.55;8.27;;;;;;;9.62;58.58;100505.50;4466523;32;34590;-73
2022/10/21 06:56:42;;;;;;;12.18;8.20;;;;;;;9.74;57.97;100492.03;4448409;32;34014;-79
2022/10/21 06:59:10;;;;;;;12.45;8.30;;;;;;;9.78;57.62;100504.06;4451716;32;34235;-82
2022/10/21 07:01:39;;;;;;;11.90;7.95;;;;;;;9.98;57.68;100496.56;4464692;32;34192;-80
2022/10/21 07:04:27;;;;;;;11.93;8.40;;;;;;;10.22;55.97;100502.94;4468572;32;34050;-79
2022/10/21 07:06:55;;;;;;;12.07;8.50;;;;;;;9.71;57.73;100496.03;4469480;32;33513;-78
2022/10/21 07:12:09;;;;;;;18.05;9.73;;;;;;;10.20;57.16;100502.34;4468979;32;34324;-83
2022/10/21 07:14:37;;;;;;;10.68;7.50;;;;;;;9.95;58.65;100497.00;4467498;32;33557;-77
2022/10/21 07:17:04;;;;;;;12.77;8.00;;;;;;;9.88;57.46;100498.16;4450460;32;33547;-78
2022/10/21 07:19:32;;;;;;;12.93;8.18;;;;;;;10.05;59.05;100499.19;4453624;32;33974;-77
2022/10/21 07:22:00;;;;;;;11.32;7.68;;;;;;;10.63;55.76;100498.66;4437579;32;33962;-78
2022/10/21 07:24:27;;;;;;;11.18;7.70;;;;;;;10.70;55.39;100500.47;4443495;32;34715;-78
2022/10/21 07:26:55;;;;;;;10.15;5.80;;;;;;;10.55;56.53;100503.59;4452371;32;33416;-80
2022/10/21 07:29:22;;;;;;;12.90;6.97;;;;;;;10.73;54.80;100508.13;4453656;32;33441;-78
2022/10/21 07:31:50;;;;;;;10.27;6.60;;;;;;;11.13;54.58;100508.34;4453174;32;34125;-81
2022/10/21 07:34:18;;;;;;;8.48;5.40;;;;;;;10.54;55.96;100507.34;4439660;32;33272;-81
2022/10/21 07:36:48;;;;;;;8.75;5.40;;;;;;;10.72;55.02;100517.34;4453744;32;34148;-82
2022/10/21 07:39:16;;;;;;;9.00;5.15;;;;;;;10.56;54.82;100527.78;4469310;32;33953;-82
2022/10/21 07:41:49;;;;;;;10.02;4.60;;;;;;;10.97;54.11;100507.16;4468378;32;34114;-80
2022/10/21 07:44:17;;;;;;;9.98;4.37;;;;;;;11.61;50.37;100509.22;4469364;32;33771;-82
2022/10/21 07:46:46;;;;;;;12.52;4.93;;;;;;;11.32;50.67;100505.53;4469330;32;34339;-80
2022/10/21 07:49:14;;;;;;;8.48;5.20;;;;;;;11.13;50.26;100502.09;4469109;32;33796;-80
2022/10/21 07:51:42;;;;;;;9.38;5.60;;;;;;;11.28;49.58;100497.87;4469307;32;33833;-82
2022/10/21 07:54:11;;;;;;;7.57;4.93;;;;;;;11.13;50.23;100488.53;4467803;32;33712;-80
2022/10/21 07:56:41;;;;;;;7.50;4.68;;;;;;;10.99;51.10;100493.31;4468619;32;33337;-82
2022/10/21 07:59:09;;;;;;;7.18;4.47;;;;;;;10.81;50.10;100489.62;4455007;32;35322;-79
2022/10/21 08:01:44;;;;;;;10.70;5.20;;;;;;;10.66;50.82;100473.78;4469220;32;34004;-78
2022/10/21 08:04:15;;;;;;;7.62;4.85;;;;;;;10.93;50.26;100472.53;4469504;32;33783;-80
2022/10/21 08:06:44;;;;;;;10.82;4.30;;;;;;;10.63;51.38;100465.28;4468772;32;33426;-81
2022/10/21 08:09:12;;;;;;;7.82;4.37;;;;;;;10.72;50.02;100465.78;4438040;32;33844;-79
2022/10/21 08:11:40;;;;;;;7.82;4.75;;;;;;;10.70;50.82;100470.63;4423865;32;35042;-83
2022/10/21 08:14:08;;;;;;;7.82;4.62;;;;;;;10.58;50.88;100466.00;4437691;32;34475;-84
2022/10/21 08:16:36;;;;;;;5.25;4.05;;;;;;;10.63;50.70;100468.00;4438095;32;33467;-80
2022/10/21 08:19:04;;;;;;;8.38;4.60;;;;;;;10.56;51.25;100459.12;4468398;32;33673;-84
2022/10/21 08:21:32;;;;;;;8.25;5.05;;;;;;;10.75;51.88;100460.69;4469061;32;34862;-82
2022/10/21 08:24:02;;;;;;;5.87;4.10;;;;;;;10.69;52.59;100453.50;4468455;32;34014;-83
2022/10/21 08:26:30;;;;;;;6.40;4.28;;;;;;;10.98;50.65;100461.81;4468705;32;33573;-79
2022/10/21 08:28:57;;;;;;;7.30;4.30;;;;;;;11.05;49.51;100451.66;4468466;32;33985;-82
2022/10/21 08:31:30;;;;;;;8.32;4.32;;;;;;;11.15;50.51;100456.53;4468960;32;34326;-82
2022/10/21 08:33:58;;;;;;;7.45;4.40;;;;;;;11.75;49.06;100453.53;4456903;32;33839;-78
2022/10/21 08:36:25;;;;;;;7.37;4.80;;;;;;;11.66;49.86;100449.50;4452757;32;33338;-80
2022/10/21 08:38:53;;;;;;;7.20;4.05;;;;;;;11.82;49.10;100451.50;4459539;32;34037;-79
2022/10/21 08:41:30;;;;;;;7.37;3.80;;;;;;;11.62;48.72;100441.03;4468009;32;34225;-79
2022/10/21 08:44:27;;;;;;;6.45;4.07;;;;;;;11.64;50.21;100435.34;4468449;32;33627;-83
2022/10/21 08:47:04;;;;;;;6.55;4.60;;;;;;;10.93;50.99;100429.94;4452283;32;33381;-83
2022/10/21 08:49:52;;;;;;;5.87;4.20;;;;;;;10.82;51.87;100437.00;4454151;32;33712;-78
2022/10/21 08:52:30;;;;;;;8.32;5.00;;;;;;;11.29;50.27;100433.50;4455126;32;33964;-76
2022/10/21 08:55:03;;;;;;;7.82;4.35;;;;;;;10.79;51.57;100421.19;4440779;32;33864;-75
2022/10/21 08:57:33;;;;;;;8.27;4.43;;;;;;;11.61;50.33;100431.22;4464091;32;33461;-71
2022/10/21 09:00:10;;;;;;;7.12;4.75;;;;;;;12.20;49.09;100422.94;4448115;32;33998;-74
2022/10/21 09:02:46;;;;;;;6.35;4.15;;;;;;;11.94;48.42;100421.59;4443773;32;34881;-73
2022/10/21 09:05:17;;;;;;;8.85;4.65;;;;;;;12.13;48.58;100411.34;4435134;32;33895;-74
2022/10/21 09:08:05;;;;;;;6.22;4.00;;;;;;;12.58;47.50;100402.38;4460916;32;33624;-72
2022/10/21 09:10:45;;;;;;;5.57;3.70;;;;;;;12.36;48.00;100418.59;4453582;32;33916;-72
2022/10/21 09:13:31;;;;;;;6.72;3.90;;;;;;;12.77;48.34;100413.87;4439312;32;35138;-73
2022/10/21 09:16:13;;;;;;;6.55;3.53;;;;;;;12.17;47.53;100407.09;4453723;32;33582;-78
2022/10/21 09:19:00;;;;;;;6.00;4.20;;;;;;;12.27;47.92;100403.75;4451001;32;33592;-75
2022/10/21 09:21:58;;;;;;;7.00;4.00;;;;;;;12.55;47.56;100402.03;4454475;32;33943;-73
2022/10/21 09:24:51;;;;;;;5.72;3.55;;;;;;;13.03;46.46;100398.75;4454695;32;35079;-72
2022/10/21 09:27:20;;;;;;;6.50;3.90;;;;;;;12.69;45.91;100408.81;4466074;32;33876;-72
2022/10/21 09:30:05;;;;;;;6.85;4.45;;;;;;;12.69;46.24;100395.22;4450482;32;33217;-71
2022/10/21 09:32:36;;;;;;;5.70;3.62;;;;;;;12.35;47.00;100403.31;4453882;32;34862;-73
2022/10/21 09:35:11;;;;;;;7.10;3.97;;;;;;;11.82;48.78;100393.59;4465587;32;34963;-71
2022/10/21 09:37:41;;;;;;;7.82;4.55;;;;;;;11.73;48.66;100389.59;4439944;32;34615;-72
2022/10/21 09:40:16;;;;;;;6.85;4.70;;;;;;;11.80;48.55;100379.41;4439299;32;34172;-67
2022/10/21 09:42:44;;;;;;;11.50;6.45;;;;;;;11.96;48.31;100375.13;4463942;32;34814;-69
2022/10/21 09:45:22;;;;;;;8.70;5.03;;;;;;;11.78;48.47;100370.69;4468286;32;35113;-69
2022/10/21 09:47:55;;;;;;;6.53;3.83;;;;;;;11.86;48.73;100367.56;4455332;32;34688;-78
2022/10/21 09:50:22;;;;;;;6.82;4.37;;;;;;;12.06;48.21;100362.53;4455384;32;34006;-77
2022/10/21 09:53:07;;;;;;;6.25;4.40;;;;;;;12.14;48.07;100360.50;4469181;32;33702;-78
2022/10/21 09:55:34;;;;;;;6.07;3.92;;;;;;;12.31;47.37;100353.22;4453800;32;34093;-86
2022/10/21 09:58:03;;;;;;;6.60;4.12;;;;;;;12.19;47.11;100350.53;4450387;32;33955;-76
2022/10/21 10:00:43;;;;;;;7.20;4.45;;;;;;;12.35;47.07;100358.97;4445646;32;33549;-72
2022/10/21 10:03:11;;;;;;;5.12;3.67;;;;;;;12.55;47.18;100353.03;4467385;32;34124;-74
2022/10/21 10:05:46;;;;;;;6.07;3.85;;;;;;;12.18;47.29;100353.50;4455256;32;35075;-70
2022/10/21 10:08:28;;;;;;;5.72;3.92;;;;;;;12.26;47.64;100348.47;4454232;32;33786;-73
2022/10/21 10:11:17;;;;;;;6.22;3.62;;;;;;;12.30;46.90;100344.19;4457817;32;33426;-75
2022/10/21 10:13:49;;;;;;;5.43;3.70;;;;;;;12.36;47.94;100336.97;4454252;32;33940;-75
2022/10/21 10:16:21;;;;;;;5.10;3.37;;;;;;;12.28;47.40;100331.91;4467559;32;35062;-75
2022/10/21 10:18:52;;;;;;;5.18;3.58;;;;;;;12.41;48.06;100322.63;4467969;32;34659;-74
2022/10/21 10:21:21;;;;;;;5.50;3.70;;;;;;;12.85;46.89;100322.75;4467713;32;32991;-73
2022/10/21 10:23:53;;;;;;;7.78;4.22;;;;;;;12.62;46.72;100310.16;4467079;32;34071;-74
2022/10/21 10:26:31;;;;;;;7.07;3.90;;;;;;;12.97;46.23;100312.59;4467547;32;33698;-77
2022/10/21 10:29:14;;;;;;;7.00;4.07;;;;;;;12.99;46.77;100310.44;4453596;32;33980;-74
2022/10/21 10:31:54;;;;;;;6.68;4.32;;;;;;;13.50;44.86;100297.50;4467833;32;34092;-74
2022/10/21 10:34:31;;;;;;;5.28;3.50;;;;;;;13.69;45.10;100302.59;4453474;32;34020;-77
2022/10/21 10:37:00;;;;;;;5.00;3.50;;;;;;;13.81;43.87;100297.84;4467632;32;34190;-74
2022/10/21 10:39:30;;;;;;;7.78;3.50;;;;;;;14.10;42.75;100286.66;4454432;32;34552;-74
2022/10/21 10:41:57;;;;;;;5.65;3.70;;;;;;;13.92;43.50;100294.13;4469645;32;33220;-75
2022/10/21 10:44:28;;;;;;;6.62;3.53;;;;;;;13.96;43.68;100286.25;4455469;32;34687;-75
2022/10/21 10:46:59;;;;;;;6.05;3.92;;;;;;;13.54;44.18;100281.44;4469309;32;34059;-73
2022/10/21 10:49:34;;;;;;;5.70;3.80;;;;;;;12.84;46.13;100275.63;4469636;32;33821;-76
2022/10/21 10:52:06;;;;;;;7.60;4.78;;;;;;;13.20;45.46;100273.41;4455551;32;33537;-77
2022/10/21 10:54:34;;;;;;;5.62;3.83;;;;;;;13.27;45.19;100263.13;4468406;32;33781;-73
2022/10/21 10:57:04;;;;;;;7.45;4.78;;;;;;;13.16;45.65;100261.34;4469258;32;35152;-76
2022/10/21 10:59:48;;;;;;;7.28;4.50;;;;;;;13.44;45.27;100252.19;4455350;32;34602;-76
2022/10/21 11:02:26;;;;;;;5.87;3.85;;;;;;;13.47;45.17;100237.22;4443983;32;33376;-75
2022/10/21 11:05:06;;;;;;;8.52;4.32;;;;;;;13.69;45.41;100246.19;4453722;32;33734;-74
2022/10/21 11:07:47;;;;;;;7.20;4.62;;;;;;;13.42;44.87;100243.44;4439944;32;34836;-75
2022/10/21 11:10:29;;;;;;;6.72;4.32;;;;;;;13.46;45.43;100243.75;4444052;32;33589;-75
2022/10/21 11:12:59;;;;;;;7.90;4.22;;;;;;;13.10;46.83;100241.38;4438410;32;33476;-74
2022/10/21 11:15:38;;;;;;;8.65;4.93;;;;;;;13.44;45.77;100244.00;4424046;32;33837;-75
2022/10/21 11:18:19;;;;;;;9.32;4.85;;;;;;;13.46;46.09;100244.56;4433442;32;34292;-74
2022/10/21 11:21:06;;;;;;;7.07;4.32;;;;;;;13.63;45.74;100230.84;4439695;32;33998;-75
2022/10/21 11:23:49;;;;;;;6.43;4.05;;;;;;;13.60;45.52;100231.34;4452917;32;33433;-74
2022/10/21 11:26:58;;;;;;;6.10;3.85;;;;;;;13.96;45.13;100228.97;4439720;32;34128;-76
2022/10/21 11:29:34;;;;;;;7.57;4.30;;;;;;;13.74;44.82;100220.88;4453665;32;34148;-74
2022/10/21 11:32:37;;;;;;;5.45;3.58;;;;;;;13.94;44.43;100212.84;4453749;32;34601;-76
2022/10/21 11:35:08;;;;;;;7.12;3.40;;;;;;;13.59;45.19;100207.91;4376287;32;33286;-74
2022/10/21 11:38:12;;;;;;;5.43;3.42;;;;;;;13.76;44.15;100210.53;4453308;32;34947;-76
2022/10/21 11:40:53;;;;;;;11.73;6.65;;;;;;;14.05;42.94;100197.41;4453515;32;35043;-78
2022/10/21 11:43:55;;;;;;;7.97;3.47;;;;;;;14.07;43.84;100176.13;4439650;32;34581;-75
2022/10/21 11:46:48;;;;;;;5.07;3.40;;;;;;;14.10;43.22;100180.25;4439424;32;34247;-76
2022/10/21 11:49:44;;;;;;;5.35;3.50;;;;;;;13.97;43.81;100188.88;4452123;32;33831;-76
2022/10/21 11:52:24;;;;;;;6.35;3.45;;;;;;;13.64;44.86;100190.78;4439213;32;34206;-77